首页
METAR-TAF:

METAR-TAF

机场 :

Pocono Mountains Municipal Airport

Mount Pocono, 宾夕法尼亚州, 美国

纬度: 41-08-20N, 经度: 075-23-46W, 海拔: 584米

当前天气观测

该预报发布于19分钟前的11:53 UTC
风速29节,风向西,有时为41节阵风
温度 -1°C
湿度 86%
气压 994 hPa
能見度: 2.4公里
少量云层高于1100英尺
散云层高于1600英尺
阴天层高于2700英尺
小雪, 轻雾

METAR: KMPO 271153Z AUTO 26029G41KT 1 1/2SM -SN BR FEW011 SCT016 OVC027 M01/M03 A2934 RMK AO2 PK WND 27041/1141 SLP949 P0001 60049 70075 T10111033 10033 21011 53002

时间: 07:12 (12:12 UTC)


TAF: 丢失

超过4000个机场的气象观测和天气预报(METAR&TAF报告)。

可查询的气象台以黄色和红色小点在地图上表示。

将鼠标移到小点上方,可查看气象台名称。

然后点击查看天气观测和预报。

如需切换地图:点击带黑十字的绿色按钮放大地图;点击带横线的绿色按钮缩小地图;或者点击绿色箭头查看邻近地区的地图。


METAR-TAF: